sensor_id;sensor_type;location;lat;lon;timestamp;P1;durP1;ratioP1;P2;durP2;ratioP2
67655;SDS011;54443;51.464;-2.584;2022-07-29T00:00:08;5.60;;;3.22;;
67655;SDS011;54443;51.464;-2.584;2022-07-29T00:02:35;5.65;;;3.60;;
67655;SDS011;54443;51.464;-2.584;2022-07-29T00:05:01;4.80;;;3.20;;
67655;SDS011;54443;51.464;-2.584;2022-07-29T00:07:27;5.50;;;3.33;;
67655;SDS011;54443;51.464;-2.584;2022-07-29T00:09:52;7.18;;;3.60;;
67655;SDS011;54443;51.464;-2.584;2022-07-29T00:12:19;7.55;;;3.33;;
67655;SDS011;54443;51.464;-2.584;2022-07-29T00:14:45;5.38;;;3.53;;
67655;SDS011;54443;51.464;-2.584;2022-07-29T00:17:10;6.32;;;3.40;;
67655;SDS011;54443;51.464;-2.584;2022-07-29T00:19:36;8.45;;;3.28;;
67655;SDS011;54443;51.464;-2.584;2022-07-29T00:22:01;6.00;;;3.25;;
67655;SDS011;54443;51.464;-2.584;2022-07-29T00:24:26;5.13;;;3.20;;
67655;SDS011;54443;51.464;-2.584;2022-07-29T00:26:52;6.18;;;2.95;;
67655;SDS011;54443;51.464;-2.584;2022-07-29T00:29:17;10.88;;;3.92;;
67655;SDS011;54443;51.464;-2.584;2022-07-29T00:31:43;5.85;;;3.42;;
67655;SDS011;54443;51.464;-2.584;2022-07-29T00:34:08;4.60;;;2.90;;
67655;SDS011;54443;51.464;-2.584;2022-07-29T00:36:54;7.18;;;3.78;;
67655;SDS011;54443;51.464;-2.584;2022-07-29T00:39:19;5.85;;;3.40;;
67655;SDS011;54443;51.464;-2.584;2022-07-29T00:41:45;5.03;;;3.28;;
67655;SDS011;54443;51.464;-2.584;2022-07-29T00:44:10;9.45;;;3.70;;
67655;SDS011;54443;51.464;-2.584;2022-07-29T00:46:35;8.10;;;3.70;;
67655;SDS011;54443;51.464;-2.584;2022-07-29T00:49:01;7.35;;;3.88;;
67655;SDS011;54443;51.464;-2.584;2022-07-29T00:51:26;7.32;;;3.75;;
67655;SDS011;54443;51.464;-2.584;2022-07-29T00:53:52;8.30;;;3.70;;
67655;SDS011;54443;51.464;-2.584;2022-07-29T00:56:18;9.77;;;3.75;;
67655;SDS011;54443;51.464;-2.584;2022-07-29T00:58:43;8.45;;;3.47;;
67655;SDS011;54443;51.464;-2.584;2022-07-29T01:01:11;4.65;;;3.25;;
67655;SDS011;54443;51.464;-2.584;2022-07-29T01:03:36;8.45;;;3.28;;
67655;SDS011;54443;51.464;-2.584;2022-07-29T01:06:01;8.25;;;3.13;;
67655;SDS011;54443;51.464;-2.584;2022-07-29T01:08:27;6.05;;;3.17;;
67655;SDS011;54443;51.464;-2.584;2022-07-29T01:10:52;5.38;;;3.05;;
67655;SDS011;54443;51.464;-2.584;2022-07-29T01:13:19;6.63;;;3.17;;
67655;SDS011;54443;51.464;-2.584;2022-07-29T01:15:46;5.80;;;2.90;;
67655;SDS011;54443;51.464;-2.584;2022-07-29T01:18:20;4.80;;;3.10;;
67655;SDS011;54443;51.464;-2.584;2022-07-29T01:23:59;4.07;;;3.22;;
67655;SDS011;54443;51.464;-2.584;2022-07-29T01:34:48;4.68;;;3.15;;
67655;SDS011;54443;51.464;-2.584;2022-07-29T01:40:02;7.43;;;3.95;;
67655;SDS011;54443;51.464;-2.584;2022-07-29T01:42:35;5.30;;;3.55;;
67655;SDS011;54443;51.464;-2.584;2022-07-29T01:51:05;5.45;;;3.47;;
67655;SDS011;54443;51.464;-2.584;2022-07-29T01:53:50;7.10;;;3.55;;
67655;SDS011;54443;51.464;-2.584;2022-07-29T01:56:36;6.30;;;3.67;;
67655;SDS011;54443;51.464;-2.584;2022-07-29T01:59:04;6.88;;;3.72;;
67655;SDS011;54443;51.464;-2.584;2022-07-29T02:01:32;4.90;;;3.50;;
67655;SDS011;54443;51.464;-2.584;2022-07-29T02:03:58;5.63;;;3.95;;
67655;SDS011;54443;51.464;-2.584;2022-07-29T02:06:24;8.23;;;3.83;;
67655;SDS011;54443;51.464;-2.584;2022-07-29T02:08:51;5.72;;;4.10;;
67655;SDS011;54443;51.464;-2.584;2022-07-29T02:11:17;7.68;;;4.30;;
67655;SDS011;54443;51.464;-2.584;2022-07-29T02:13:43;6.30;;;3.85;;
67655;SDS011;54443;51.464;-2.584;2022-07-29T02:16:10;5.07;;;3.47;;
67655;SDS011;54443;51.464;-2.584;2022-07-29T02:18:36;5.15;;;3.70;;
67655;SDS011;54443;51.464;-2.584;2022-07-29T02:21:02;4.10;;;3.40;;
67655;SDS011;54443;51.464;-2.584;2022-07-29T02:23:28;8.32;;;3.60;;
67655;SDS011;54443;51.464;-2.584;2022-07-29T02:25:56;6.28;;;4.10;;
67655;SDS011;54443;51.464;-2.584;2022-07-29T02:28:24;7.80;;;3.90;;
67655;SDS011;54443;51.464;-2.584;2022-07-29T02:30:51;5.80;;;3.47;;
67655;SDS011;54443;51.464;-2.584;2022-07-29T02:33:18;6.85;;;3.80;;
67655;SDS011;54443;51.464;-2.584;2022-07-29T02:35:44;6.50;;;3.75;;
67655;SDS011;54443;51.464;-2.584;2022-07-29T02:38:12;6.25;;;3.92;;
67655;SDS011;54443;51.464;-2.584;2022-07-29T02:40:58;6.82;;;3.67;;
67655;SDS011;54443;51.464;-2.584;2022-07-29T02:43:24;10.32;;;4.00;;
67655;SDS011;54443;51.464;-2.584;2022-07-29T02:45:51;7.90;;;3.72;;
67655;SDS011;54443;51.464;-2.584;2022-07-29T02:48:18;6.70;;;3.90;;
67655;SDS011;54443;51.464;-2.584;2022-07-29T02:50:52;6.43;;;3.55;;
67655;SDS011;54443;51.464;-2.584;2022-07-29T02:53:22;7.83;;;4.27;;
67655;SDS011;54443;51.464;-2.584;2022-07-29T02:55:51;6.28;;;3.72;;
67655;SDS011;54443;51.464;-2.584;2022-07-29T02:58:23;6.55;;;4.20;;
67655;SDS011;54443;51.464;-2.584;2022-07-29T03:00:53;6.47;;;3.55;;
67655;SDS011;54443;51.464;-2.584;2022-07-29T03:03:19;6.00;;;3.92;;
67655;SDS011;54443;51.464;-2.584;2022-07-29T03:05:46;6.05;;;3.90;;
67655;SDS011;54443;51.464;-2.584;2022-07-29T03:08:11;6.40;;;3.95;;
67655;SDS011;54443;51.464;-2.584;2022-07-29T03:10:39;8.65;;;4.43;;
67655;SDS011;54443;51.464;-2.584;2022-07-29T03:13:07;7.78;;;4.20;;
67655;SDS011;54443;51.464;-2.584;2022-07-29T03:15:33;8.40;;;4.57;;
67655;SDS011;54443;51.464;-2.584;2022-07-29T03:17:58;6.82;;;3.90;;
67655;SDS011;54443;51.464;-2.584;2022-07-29T03:20:25;4.43;;;3.53;;
67655;SDS011;54443;51.464;-2.584;2022-07-29T03:22:50;7.82;;;3.85;;
67655;SDS011;54443;51.464;-2.584;2022-07-29T03:25:17;7.82;;;4.30;;
67655;SDS011;54443;51.464;-2.584;2022-07-29T03:27:44;6.90;;;4.18;;
67655;SDS011;54443;51.464;-2.584;2022-07-29T03:30:10;5.85;;;4.32;;
67655;SDS011;54443;51.464;-2.584;2022-07-29T03:32:36;10.85;;;4.57;;
67655;SDS011;54443;51.464;-2.584;2022-07-29T03:35:02;9.55;;;4.72;;
67655;SDS011;54443;51.464;-2.584;2022-07-29T03:37:28;6.50;;;4.60;;
67655;SDS011;54443;51.464;-2.584;2022-07-29T03:39:55;5.88;;;4.40;;
67655;SDS011;54443;51.464;-2.584;2022-07-29T03:42:23;7.80;;;4.47;;
67655;SDS011;54443;51.464;-2.584;2022-07-29T03:44:49;7.15;;;4.10;;
67655;SDS011;54443;51.464;-2.584;2022-07-29T03:47:16;6.65;;;3.83;;
67655;SDS011;54443;51.464;-2.584;2022-07-29T03:49:42;11.82;;;4.18;;
67655;SDS011;54443;51.464;-2.584;2022-07-29T03:52:09;9.02;;;3.85;;
67655;SDS011;54443;51.464;-2.584;2022-07-29T03:54:35;9.80;;;3.70;;
67655;SDS011;54443;51.464;-2.584;2022-07-29T03:57:01;5.57;;;3.90;;
67655;SDS011;54443;51.464;-2.584;2022-07-29T03:59:27;9.98;;;5.00;;
67655;SDS011;54443;51.464;-2.584;2022-07-29T04:01:53;6.72;;;4.32;;
67655;SDS011;54443;51.464;-2.584;2022-07-29T04:04:21;7.88;;;4.30;;
67655;SDS011;54443;51.464;-2.584;2022-07-29T04:06:46;11.38;;;4.78;;
67655;SDS011;54443;51.464;-2.584;2022-07-29T04:09:12;12.43;;;4.95;;
67655;SDS011;54443;51.464;-2.584;2022-07-29T04:11:38;7.90;;;4.30;;
67655;SDS011;54443;51.464;-2.584;2022-07-29T04:14:04;8.32;;;3.72;;
67655;SDS011;54443;51.464;-2.584;2022-07-29T04:16:30;14.10;;;4.40;;
67655;SDS011;54443;51.464;-2.584;2022-07-29T04:18:55;8.85;;;4.30;;
67655;SDS011;54443;51.464;-2.584;2022-07-29T04:21:21;13.15;;;4.18;;
67655;SDS011;54443;51.464;-2.584;2022-07-29T04:23:46;6.75;;;4.00;;
67655;SDS011;54443;51.464;-2.584;2022-07-29T04:26:15;9.40;;;3.90;;
67655;SDS011;54443;51.464;-2.584;2022-07-29T04:28:44;6.90;;;4.40;;
67655;SDS011;54443;51.464;-2.584;2022-07-29T04:31:10;8.02;;;3.95;;
67655;SDS011;54443;51.464;-2.584;2022-07-29T04:33:36;6.38;;;3.78;;
67655;SDS011;54443;51.464;-2.584;2022-07-29T04:36:02;8.45;;;4.13;;
67655;SDS011;54443;51.464;-2.584;2022-07-29T04:38:27;5.47;;;3.72;;
67655;SDS011;54443;51.464;-2.584;2022-07-29T04:40:53;9.75;;;4.15;;
67655;SDS011;54443;51.464;-2.584;2022-07-29T04:43:18;8.43;;;4.57;;
67655;SDS011;54443;51.464;-2.584;2022-07-29T04:45:44;5.82;;;4.38;;
67655;SDS011;54443;51.464;-2.584;2022-07-29T04:48:09;9.35;;;4.43;;
67655;SDS011;54443;51.464;-2.584;2022-07-29T04:50:37;4.72;;;3.72;;
67655;SDS011;54443;51.464;-2.584;2022-07-29T04:53:03;7.72;;;4.30;;
67655;SDS011;54443;51.464;-2.584;2022-07-29T04:55:28;14.88;;;4.28;;
67655;SDS011;54443;51.464;-2.584;2022-07-29T04:57:54;10.68;;;4.50;;
67655;SDS011;54443;51.464;-2.584;2022-07-29T05:00:19;8.10;;;4.38;;
67655;SDS011;54443;51.464;-2.584;2022-07-29T05:02:44;13.70;;;4.80;;
67655;SDS011;54443;51.464;-2.584;2022-07-29T05:05:10;8.38;;;4.22;;
67655;SDS011;54443;51.464;-2.584;2022-07-29T05:07:35;5.95;;;4.40;;
67655;SDS011;54443;51.464;-2.584;2022-07-29T05:10:01;6.65;;;4.45;;
67655;SDS011;54443;51.464;-2.584;2022-07-29T05:12:26;7.03;;;4.80;;
67655;SDS011;54443;51.464;-2.584;2022-07-29T05:14:52;7.20;;;4.20;;
67655;SDS011;54443;51.464;-2.584;2022-07-29T05:17:18;9.73;;;4.30;;
67655;SDS011;54443;51.464;-2.584;2022-07-29T05:19:43;7.22;;;4.57;;
67655;SDS011;54443;51.464;-2.584;2022-07-29T05:22:09;7.20;;;4.53;;
67655;SDS011;54443;51.464;-2.584;2022-07-29T05:24:34;6.10;;;4.43;;
67655;SDS011;54443;51.464;-2.584;2022-07-29T05:27:00;12.40;;;5.32;;
67655;SDS011;54443;51.464;-2.584;2022-07-29T05:29:25;8.90;;;5.65;;
67655;SDS011;54443;51.464;-2.584;2022-07-29T05:31:51;11.77;;;5.50;;
67655;SDS011;54443;51.464;-2.584;2022-07-29T05:34:17;8.73;;;5.53;;
67655;SDS011;54443;51.464;-2.584;2022-07-29T05:36:43;8.07;;;4.70;;
67655;SDS011;54443;51.464;-2.584;2022-07-29T05:39:10;6.03;;;4.38;;
67655;SDS011;54443;51.464;-2.584;2022-07-29T05:41:35;12.70;;;4.50;;
67655;SDS011;54443;51.464;-2.584;2022-07-29T05:44:01;10.65;;;4.43;;
67655;SDS011;54443;51.464;-2.584;2022-07-29T05:46:27;7.13;;;4.55;;
67655;SDS011;54443;51.464;-2.584;2022-07-29T05:48:53;8.30;;;5.22;;
67655;SDS011;54443;51.464;-2.584;2022-07-29T05:51:18;8.02;;;4.55;;
67655;SDS011;54443;51.464;-2.584;2022-07-29T05:53:43;12.63;;;4.35;;
67655;SDS011;54443;51.464;-2.584;2022-07-29T05:56:09;9.07;;;4.30;;
67655;SDS011;54443;51.464;-2.584;2022-07-29T05:58:35;11.95;;;5.47;;
67655;SDS011;54443;51.464;-2.584;2022-07-29T06:01:01;9.60;;;4.30;;
67655;SDS011;54443;51.464;-2.584;2022-07-29T06:03:26;5.70;;;4.07;;
67655;SDS011;54443;51.464;-2.584;2022-07-29T06:05:52;7.50;;;4.03;;
67655;SDS011;54443;51.464;-2.584;2022-07-29T06:08:18;7.82;;;4.15;;
67655;SDS011;54443;51.464;-2.584;2022-07-29T06:10:43;7.00;;;3.95;;
67655;SDS011;54443;51.464;-2.584;2022-07-29T06:13:10;7.88;;;4.55;;
67655;SDS011;54443;51.464;-2.584;2022-07-29T06:15:36;5.10;;;4.07;;
67655;SDS011;54443;51.464;-2.584;2022-07-29T06:18:02;9.63;;;4.65;;
67655;SDS011;54443;51.464;-2.584;2022-07-29T06:20:28;11.13;;;5.43;;
67655;SDS011;54443;51.464;-2.584;2022-07-29T06:22:54;15.65;;;5.47;;
67655;SDS011;54443;51.464;-2.584;2022-07-29T06:25:20;10.05;;;5.00;;
67655;SDS011;54443;51.464;-2.584;2022-07-29T06:27:46;7.03;;;4.88;;
67655;SDS011;54443;51.464;-2.584;2022-07-29T06:30:12;6.45;;;4.40;;
67655;SDS011;54443;51.464;-2.584;2022-07-29T06:32:37;7.55;;;3.95;;
67655;SDS011;54443;51.464;-2.584;2022-07-29T06:35:03;6.75;;;3.70;;
67655;SDS011;54443;51.464;-2.584;2022-07-29T06:37:28;4.20;;;2.83;;
67655;SDS011;54443;51.464;-2.584;2022-07-29T06:39:54;6.03;;;3.20;;
67655;SDS011;54443;51.464;-2.584;2022-07-29T06:42:41;6.43;;;2.97;;
67655;SDS011;54443;51.464;-2.584;2022-07-29T06:45:07;3.28;;;2.97;;
67655;SDS011;54443;51.464;-2.584;2022-07-29T06:47:33;5.38;;;3.22;;
67655;SDS011;54443;51.464;-2.584;2022-07-29T06:49:59;5.03;;;2.70;;
67655;SDS011;54443;51.464;-2.584;2022-07-29T06:52:24;4.63;;;2.78;;
67655;SDS011;54443;51.464;-2.584;2022-07-29T06:54:50;4.90;;;3.08;;
67655;SDS011;54443;51.464;-2.584;2022-07-29T06:57:16;3.92;;;1.92;;
67655;SDS011;54443;51.464;-2.584;2022-07-29T06:59:41;5.07;;;2.45;;
67655;SDS011;54443;51.464;-2.584;2022-07-29T07:02:07;4.75;;;2.00;;
67655;SDS011;54443;51.464;-2.584;2022-07-29T07:04:32;7.75;;;2.75;;
67655;SDS011;54443;51.464;-2.584;2022-07-29T07:06:58;5.50;;;2.40;;
67655;SDS011;54443;51.464;-2.584;2022-07-29T07:09:24;10.73;;;2.40;;
67655;SDS011;54443;51.464;-2.584;2022-07-29T07:11:50;3.28;;;2.00;;
67655;SDS011;54443;51.464;-2.584;2022-07-29T07:14:15;9.20;;;2.33;;
67655;SDS011;54443;51.464;-2.584;2022-07-29T07:16:41;5.72;;;2.47;;
67655;SDS011;54443;51.464;-2.584;2022-07-29T07:19:06;6.45;;;2.25;;
67655;SDS011;54443;51.464;-2.584;2022-07-29T07:21:32;3.08;;;1.73;;
67655;SDS011;54443;51.464;-2.584;2022-07-29T07:23:58;3.78;;;1.60;;
67655;SDS011;54443;51.464;-2.584;2022-07-29T07:26:24;4.63;;;2.38;;
67655;SDS011;54443;51.464;-2.584;2022-07-29T07:28:50;4.13;;;1.92;;
67655;SDS011;54443;51.464;-2.584;2022-07-29T07:31:16;7.03;;;1.95;;
67655;SDS011;54443;51.464;-2.584;2022-07-29T07:33:41;3.90;;;1.50;;
67655;SDS011;54443;51.464;-2.584;2022-07-29T07:36:06;5.35;;;1.88;;
67655;SDS011;54443;51.464;-2.584;2022-07-29T07:38:33;2.85;;;1.77;;
67655;SDS011;54443;51.464;-2.584;2022-07-29T07:40:58;3.80;;;1.80;;
67655;SDS011;54443;51.464;-2.584;2022-07-29T07:43:24;2.17;;;1.58;;
67655;SDS011;54443;51.464;-2.584;2022-07-29T07:45:49;2.70;;;1.40;;
67655;SDS011;54443;51.464;-2.584;2022-07-29T07:48:15;3.90;;;2.03;;
67655;SDS011;54443;51.464;-2.584;2022-07-29T07:50:40;3.50;;;1.80;;
67655;SDS011;54443;51.464;-2.584;2022-07-29T07:53:06;1.60;;;1.33;;
67655;SDS011;54443;51.464;-2.584;2022-07-29T07:55:31;2.88;;;1.50;;
67655;SDS011;54443;51.464;-2.584;2022-07-29T07:57:56;1.60;;;1.48;;
67655;SDS011;54443;51.464;-2.584;2022-07-29T08:00:22;3.85;;;1.75;;
67655;SDS011;54443;51.464;-2.584;2022-07-29T08:02:47;5.55;;;1.80;;
67655;SDS011;54443;51.464;-2.584;2022-07-29T08:05:13;2.63;;;1.50;;
67655;SDS011;54443;51.464;-2.584;2022-07-29T08:07:42;4.03;;;1.58;;
67655;SDS011;54443;51.464;-2.584;2022-07-29T08:10:12;3.17;;;1.75;;
67655;SDS011;54443;51.464;-2.584;2022-07-29T08:12:38;4.60;;;1.60;;
67655;SDS011;54443;51.464;-2.584;2022-07-29T08:15:04;2.55;;;1.60;;
67655;SDS011;54443;51.464;-2.584;2022-07-29T08:17:32;3.92;;;1.60;;
67655;SDS011;54443;51.464;-2.584;2022-07-29T08:19:57;2.78;;;1.80;;
67655;SDS011;54443;51.464;-2.584;2022-07-29T08:22:22;4.60;;;1.83;;
67655;SDS011;54443;51.464;-2.584;2022-07-29T08:24:48;5.90;;;1.55;;
67655;SDS011;54443;51.464;-2.584;2022-07-29T08:27:21;3.38;;;1.88;;
67655;SDS011;54443;51.464;-2.584;2022-07-29T08:29:47;4.32;;;1.60;;
67655;SDS011;54443;51.464;-2.584;2022-07-29T08:32:12;7.07;;;1.70;;
67655;SDS011;54443;51.464;-2.584;2022-07-29T08:34:38;5.28;;;1.60;;
67655;SDS011;54443;51.464;-2.584;2022-07-29T08:37:03;3.40;;;1.65;;
67655;SDS011;54443;51.464;-2.584;2022-07-29T08:39:29;2.92;;;1.70;;
67655;SDS011;54443;51.464;-2.584;2022-07-29T08:41:54;2.58;;;1.38;;
67655;SDS011;54443;51.464;-2.584;2022-07-29T08:44:20;6.93;;;2.10;;
67655;SDS011;54443;51.464;-2.584;2022-07-29T08:46:49;3.15;;;1.70;;
67655;SDS011;54443;51.464;-2.584;2022-07-29T08:49:15;4.00;;;1.92;;
67655;SDS011;54443;51.464;-2.584;2022-07-29T08:51:40;6.07;;;2.03;;
67655;SDS011;54443;51.464;-2.584;2022-07-29T08:54:08;3.35;;;1.75;;
67655;SDS011;54443;51.464;-2.584;2022-07-29T08:56:34;4.65;;;1.90;;
67655;SDS011;54443;51.464;-2.584;2022-07-29T08:59:02;2.60;;;1.83;;
67655;SDS011;54443;51.464;-2.584;2022-07-29T09:01:29;9.32;;;1.98;;
67655;SDS011;54443;51.464;-2.584;2022-07-29T09:03:55;1.88;;;1.50;;
67655;SDS011;54443;51.464;-2.584;2022-07-29T09:06:22;3.70;;;2.20;;
67655;SDS011;54443;51.464;-2.584;2022-07-29T09:08:47;4.45;;;1.80;;
67655;SDS011;54443;51.464;-2.584;2022-07-29T09:11:13;4.43;;;1.85;;
67655;SDS011;54443;51.464;-2.584;2022-07-29T09:13:39;1.95;;;1.60;;
67655;SDS011;54443;51.464;-2.584;2022-07-29T09:16:05;4.38;;;1.58;;
67655;SDS011;54443;51.464;-2.584;2022-07-29T09:18:38;5.53;;;1.83;;
67655;SDS011;54443;51.464;-2.584;2022-07-29T09:21:06;4.43;;;1.98;;
67655;SDS011;54443;51.464;-2.584;2022-07-29T09:24:10;3.17;;;1.60;;
67655;SDS011;54443;51.464;-2.584;2022-07-29T09:26:40;4.78;;;1.70;;
67655;SDS011;54443;51.464;-2.584;2022-07-29T09:29:13;5.82;;;1.90;;
67655;SDS011;54443;51.464;-2.584;2022-07-29T09:31:41;5.22;;;1.83;;
67655;SDS011;54443;51.464;-2.584;2022-07-29T09:34:08;4.07;;;1.83;;
67655;SDS011;54443;51.464;-2.584;2022-07-29T09:36:44;8.30;;;1.70;;
67655;SDS011;54443;51.464;-2.584;2022-07-29T09:39:11;3.10;;;1.73;;
67655;SDS011;54443;51.464;-2.584;2022-07-29T09:41:47;4.07;;;1.80;;
67655;SDS011;54443;51.464;-2.584;2022-07-29T09:44:14;5.35;;;1.85;;
67655;SDS011;54443;51.464;-2.584;2022-07-29T09:46:40;4.40;;;1.55;;
67655;SDS011;54443;51.464;-2.584;2022-07-29T09:49:17;6.82;;;1.58;;
67655;SDS011;54443;51.464;-2.584;2022-07-29T09:51:42;5.72;;;1.63;;
67655;SDS011;54443;51.464;-2.584;2022-07-29T09:54:21;3.38;;;1.88;;
67655;SDS011;54443;51.464;-2.584;2022-07-29T09:56:48;7.45;;;1.80;;
67655;SDS011;54443;51.464;-2.584;2022-07-29T09:59:13;5.22;;;1.80;;
67655;SDS011;54443;51.464;-2.584;2022-07-29T10:01:39;2.17;;;1.40;;
67655;SDS011;54443;51.464;-2.584;2022-07-29T10:04:05;5.85;;;1.70;;
67655;SDS011;54443;51.464;-2.584;2022-07-29T10:06:30;5.00;;;1.83;;
67655;SDS011;54443;51.464;-2.584;2022-07-29T10:09:17;3.03;;;1.75;;
67655;SDS011;54443;51.464;-2.584;2022-07-29T10:11:41;5.05;;;1.80;;
67655;SDS011;54443;51.464;-2.584;2022-07-29T10:14:07;4.68;;;1.65;;
67655;SDS011;54443;51.464;-2.584;2022-07-29T10:16:32;6.25;;;1.85;;
67655;SDS011;54443;51.464;-2.584;2022-07-29T10:18:58;4.97;;;1.77;;
67655;SDS011;54443;51.464;-2.584;2022-07-29T10:21:26;3.38;;;2.05;;
67655;SDS011;54443;51.464;-2.584;2022-07-29T10:23:52;4.63;;;1.85;;
67655;SDS011;54443;51.464;-2.584;2022-07-29T10:26:19;3.97;;;1.90;;
67655;SDS011;54443;51.464;-2.584;2022-07-29T10:28:45;5.03;;;1.80;;
67655;SDS011;54443;51.464;-2.584;2022-07-29T10:31:14;3.92;;;1.65;;
67655;SDS011;54443;51.464;-2.584;2022-07-29T10:41:47;2.78;;;1.50;;
67655;SDS011;54443;51.464;-2.584;2022-07-29T10:44:22;1.65;;;1.42;;
67655;SDS011;54443;51.464;-2.584;2022-07-29T10:46:50;4.82;;;1.55;;
67655;SDS011;54443;51.464;-2.584;2022-07-29T10:49:17;4.57;;;1.70;;
67655;SDS011;54443;51.464;-2.584;2022-07-29T10:54:42;3.63;;;1.20;;
67655;SDS011;54443;51.464;-2.584;2022-07-29T10:57:31;3.90;;;1.70;;
67655;SDS011;54443;51.464;-2.584;2022-07-29T11:10:38;4.43;;;1.42;;
67655;SDS011;54443;51.464;-2.584;2022-07-29T11:13:04;3.03;;;1.60;;
67655;SDS011;54443;51.464;-2.584;2022-07-29T11:15:29;3.15;;;1.50;;
67655;SDS011;54443;51.464;-2.584;2022-07-29T11:18:21;3.28;;;1.80;;
67655;SDS011;54443;51.464;-2.584;2022-07-29T11:23:18;3.40;;;1.42;;
67655;SDS011;54443;51.464;-2.584;2022-07-29T11:28:55;1.92;;;1.60;;
67655;SDS011;54443;51.464;-2.584;2022-07-29T11:31:40;7.53;;;1.70;;
67655;SDS011;54443;51.464;-2.584;2022-07-29T11:39:32;3.28;;;1.45;;
67655;SDS011;54443;51.464;-2.584;2022-07-29T11:44:58;3.85;;;1.50;;
67655;SDS011;54443;51.464;-2.584;2022-07-29T11:47:26;4.68;;;2.38;;
67655;SDS011;54443;51.464;-2.584;2022-07-29T11:49:55;2.75;;;1.55;;
67655;SDS011;54443;51.464;-2.584;2022-07-29T11:52:22;4.53;;;1.60;;
67655;SDS011;54443;51.464;-2.584;2022-07-29T11:54:48;3.80;;;1.50;;
67655;SDS011;54443;51.464;-2.584;2022-07-29T11:57:15;3.30;;;1.23;;
67655;SDS011;54443;51.464;-2.584;2022-07-29T11:59:42;2.60;;;1.25;;
67655;SDS011;54443;51.464;-2.584;2022-07-29T12:02:09;5.45;;;1.58;;
67655;SDS011;54443;51.464;-2.584;2022-07-29T12:07:28;2.95;;;1.40;;
67655;SDS011;54443;51.464;-2.584;2022-07-29T12:09:54;3.50;;;1.33;;
67655;SDS011;54443;51.464;-2.584;2022-07-29T12:12:20;5.40;;;1.67;;
67655;SDS011;54443;51.464;-2.584;2022-07-29T12:14:46;2.47;;;1.20;;
67655;SDS011;54443;51.464;-2.584;2022-07-29T12:19:57;3.42;;;1.35;;
67655;SDS011;54443;51.464;-2.584;2022-07-29T12:22:34;3.63;;;1.23;;
67655;SDS011;54443;51.464;-2.584;2022-07-29T12:25:06;5.15;;;1.80;;
67655;SDS011;54443;51.464;-2.584;2022-07-29T12:27:34;4.25;;;1.20;;
67655;SDS011;54443;51.464;-2.584;2022-07-29T12:30:01;5.10;;;1.40;;
67655;SDS011;54443;51.464;-2.584;2022-07-29T12:32:32;2.55;;;1.40;;
67655;SDS011;54443;51.464;-2.584;2022-07-29T12:35:00;2.28;;;1.38;;
67655;SDS011;54443;51.464;-2.584;2022-07-29T12:37:32;4.15;;;1.40;;
67655;SDS011;54443;51.464;-2.584;2022-07-29T12:39:59;3.97;;;1.52;;
67655;SDS011;54443;51.464;-2.584;2022-07-29T12:42:24;2.72;;;1.10;;
67655;SDS011;54443;51.464;-2.584;2022-07-29T12:44:50;4.25;;;1.40;;
67655;SDS011;54443;51.464;-2.584;2022-07-29T12:47:16;3.08;;;1.30;;
67655;SDS011;54443;51.464;-2.584;2022-07-29T12:49:45;2.65;;;1.20;;
67655;SDS011;54443;51.464;-2.584;2022-07-29T12:52:31;7.07;;;1.83;;
67655;SDS011;54443;51.464;-2.584;2022-07-29T12:54:59;1.45;;;1.30;;
67655;SDS011;54443;51.464;-2.584;2022-07-29T12:57:26;4.03;;;1.50;;
67655;SDS011;54443;51.464;-2.584;2022-07-29T13:02:30;5.55;;;1.30;;
67655;SDS011;54443;51.464;-2.584;2022-07-29T13:04:56;2.33;;;1.40;;
67655;SDS011;54443;51.464;-2.584;2022-07-29T13:07:26;6.35;;;1.23;;
67655;SDS011;54443;51.464;-2.584;2022-07-29T13:09:54;3.80;;;1.30;;
67655;SDS011;54443;51.464;-2.584;2022-07-29T13:12:21;2.15;;;1.05;;
67655;SDS011;54443;51.464;-2.584;2022-07-29T13:14:47;2.75;;;1.30;;
67655;SDS011;54443;51.464;-2.584;2022-07-29T13:17:23;8.20;;;1.70;;
67655;SDS011;54443;51.464;-2.584;2022-07-29T13:22:15;3.30;;;1.50;;
67655;SDS011;54443;51.464;-2.584;2022-07-29T13:24:55;4.30;;;1.50;;
67655;SDS011;54443;51.464;-2.584;2022-07-29T13:27:23;6.45;;;1.50;;
67655;SDS011;54443;51.464;-2.584;2022-07-29T13:29:51;2.88;;;1.30;;
67655;SDS011;54443;51.464;-2.584;2022-07-29T13:32:18;9.48;;;1.60;;
67655;SDS011;54443;51.464;-2.584;2022-07-29T13:34:44;2.58;;;1.30;;
67655;SDS011;54443;51.464;-2.584;2022-07-29T13:37:10;5.93;;;1.63;;
67655;SDS011;54443;51.464;-2.584;2022-07-29T13:39:36;2.92;;;1.10;;
67655;SDS011;54443;51.464;-2.584;2022-07-29T13:42:02;3.92;;;1.38;;
67655;SDS011;54443;51.464;-2.584;2022-07-29T13:44:28;5.40;;;1.35;;
67655;SDS011;54443;51.464;-2.584;2022-07-29T13:46:54;3.47;;;1.20;;
67655;SDS011;54443;51.464;-2.584;2022-07-29T13:49:19;3.30;;;1.45;;
67655;SDS011;54443;51.464;-2.584;2022-07-29T13:51:45;3.45;;;1.50;;
67655;SDS011;54443;51.464;-2.584;2022-07-29T13:54:10;3.60;;;1.48;;
67655;SDS011;54443;51.464;-2.584;2022-07-29T13:56:35;4.32;;;1.35;;
67655;SDS011;54443;51.464;-2.584;2022-07-29T13:59:01;5.28;;;1.88;;
67655;SDS011;54443;51.464;-2.584;2022-07-29T14:01:27;2.95;;;1.30;;
67655;SDS011;54443;51.464;-2.584;2022-07-29T14:03:52;2.60;;;1.40;;
67655;SDS011;54443;51.464;-2.584;2022-07-29T14:06:18;3.53;;;1.30;;
67655;SDS011;54443;51.464;-2.584;2022-07-29T14:08:44;3.17;;;1.50;;
67655;SDS011;54443;51.464;-2.584;2022-07-29T14:11:09;5.43;;;1.83;;
67655;SDS011;54443;51.464;-2.584;2022-07-29T14:13:35;7.10;;;1.30;;
67655;SDS011;54443;51.464;-2.584;2022-07-29T14:16:00;3.38;;;1.25;;
67655;SDS011;54443;51.464;-2.584;2022-07-29T14:18:25;2.33;;;1.52;;
67655;SDS011;54443;51.464;-2.584;2022-07-29T14:20:51;1.75;;;1.45;;
67655;SDS011;54443;51.464;-2.584;2022-07-29T14:23:17;2.63;;;1.20;;
67655;SDS011;54443;51.464;-2.584;2022-07-29T14:25:42;2.65;;;0.90;;
67655;SDS011;54443;51.464;-2.584;2022-07-29T14:28:08;2.58;;;1.20;;
67655;SDS011;54443;51.464;-2.584;2022-07-29T14:30:33;5.15;;;1.50;;
67655;SDS011;54443;51.464;-2.584;2022-07-29T14:32:59;2.03;;;1.10;;
67655;SDS011;54443;51.464;-2.584;2022-07-29T14:35:24;4.60;;;1.48;;
67655;SDS011;54443;51.464;-2.584;2022-07-29T14:37:50;3.95;;;1.35;;
67655;SDS011;54443;51.464;-2.584;2022-07-29T14:40:15;2.00;;;1.50;;
67655;SDS011;54443;51.464;-2.584;2022-07-29T14:42:41;2.22;;;1.50;;
67655;SDS011;54443;51.464;-2.584;2022-07-29T14:45:07;6.35;;;1.52;;
67655;SDS011;54443;51.464;-2.584;2022-07-29T14:47:33;2.47;;;1.42;;
67655;SDS011;54443;51.464;-2.584;2022-07-29T14:49:59;2.55;;;1.40;;
67655;SDS011;54443;51.464;-2.584;2022-07-29T14:52:24;6.47;;;1.90;;
67655;SDS011;54443;51.464;-2.584;2022-07-29T14:54:50;2.60;;;1.35;;
67655;SDS011;54443;51.464;-2.584;2022-07-29T14:57:16;5.07;;;1.60;;
67655;SDS011;54443;51.464;-2.584;2022-07-29T14:59:41;7.82;;;1.73;;
67655;SDS011;54443;51.464;-2.584;2022-07-29T15:02:07;7.32;;;1.60;;
67655;SDS011;54443;51.464;-2.584;2022-07-29T15:04:32;3.58;;;2.20;;
67655;SDS011;54443;51.464;-2.584;2022-07-29T15:06:57;4.78;;;1.83;;
67655;SDS011;54443;51.464;-2.584;2022-07-29T15:09:23;5.88;;;1.60;;
67655;SDS011;54443;51.464;-2.584;2022-07-29T15:11:48;4.53;;;1.73;;
67655;SDS011;54443;51.464;-2.584;2022-07-29T15:14:14;8.10;;;1.92;;
67655;SDS011;54443;51.464;-2.584;2022-07-29T15:16:39;3.92;;;1.55;;
67655;SDS011;54443;51.464;-2.584;2022-07-29T15:19:07;5.18;;;1.60;;
67655;SDS011;54443;51.464;-2.584;2022-07-29T15:21:33;3.88;;;1.48;;
67655;SDS011;54443;51.464;-2.584;2022-07-29T15:23:58;4.00;;;1.80;;
67655;SDS011;54443;51.464;-2.584;2022-07-29T15:26:24;2.50;;;1.63;;
67655;SDS011;54443;51.464;-2.584;2022-07-29T15:28:49;5.47;;;2.08;;
67655;SDS011;54443;51.464;-2.584;2022-07-29T15:31:15;2.28;;;1.40;;
67655;SDS011;54443;51.464;-2.584;2022-07-29T15:33:40;4.13;;;1.58;;
67655;SDS011;54443;51.464;-2.584;2022-07-29T15:36:05;1.70;;;1.35;;
67655;SDS011;54443;51.464;-2.584;2022-07-29T15:38:31;8.43;;;1.77;;